createdAt,value
2018-06-23T00:01:53.907Z,21.30
2018-06-23T00:06:50.697Z,21.20
2018-06-23T00:09:19.299Z,21.20
2018-06-23T00:11:47.962Z,21.10
2018-06-23T00:14:17.781Z,21.10
2018-06-23T00:16:47.389Z,21.10
2018-06-23T00:19:16.300Z,21.10
2018-06-23T00:21:45.162Z,21.00
2018-06-23T00:24:13.783Z,21.00
2018-06-23T00:26:42.356Z,21.00
2018-06-23T00:29:10.910Z,20.90
2018-06-23T00:31:39.469Z,20.90
2018-06-23T00:34:08.096Z,20.90
2018-06-23T00:36:36.639Z,20.80
2018-06-23T00:39:07.740Z,20.80
2018-06-23T00:41:36.388Z,20.80
2018-06-23T00:44:05.226Z,20.70
2018-06-23T00:46:33.814Z,20.70
2018-06-23T00:49:02.373Z,20.60
2018-06-23T00:51:31.060Z,20.60
2018-06-23T00:53:59.611Z,20.60
2018-06-23T00:56:28.148Z,20.50
2018-06-23T00:59:07.880Z,20.50
2018-06-23T01:01:36.519Z,20.50
2018-06-23T01:04:05.220Z,20.50
2018-06-23T01:06:33.818Z,20.40
2018-06-23T01:09:02.368Z,20.40
2018-06-23T01:13:59.102Z,20.20
2018-06-23T01:16:27.629Z,20.30
2018-06-23T01:18:56.157Z,20.30
2018-06-23T01:21:24.703Z,20.20
2018-06-23T01:23:53.278Z,20.20
2018-06-23T01:26:21.875Z,20.10
2018-06-23T01:28:50.373Z,20.10
2018-06-23T01:31:18.910Z,20.10
2018-06-23T01:36:15.618Z,20.00
2018-06-23T01:38:44.127Z,20.00
2018-06-23T01:41:12.698Z,20.00
2018-06-23T01:43:41.250Z,19.90
2018-06-23T01:46:09.773Z,19.90
2018-06-23T01:48:38.351Z,19.90
2018-06-23T01:51:07.506Z,19.80
2018-06-23T01:53:36.020Z,19.80
2018-06-23T01:56:05.013Z,19.70
2018-06-23T01:58:33.530Z,19.70
2018-06-23T02:01:02.159Z,19.70
2018-06-23T02:03:30.689Z,19.70
2018-06-23T02:05:59.237Z,19.60
2018-06-23T02:08:28.002Z,19.60
2018-06-23T02:10:56.558Z,19.50
2018-06-23T02:13:25.089Z,19.50
2018-06-23T02:15:59.434Z,19.50
2018-06-23T02:18:33.202Z,19.40
2018-06-23T02:22:06.104Z,19.40
2018-06-23T02:24:40.165Z,19.40
2018-06-23T02:27:14.251Z,19.30
2018-06-23T02:29:48.647Z,19.30
2018-06-23T02:32:22.586Z,19.30
2018-06-23T02:34:56.455Z,19.30
2018-06-23T02:37:25.012Z,19.20
2018-06-23T02:39:53.773Z,19.20
2018-06-23T02:42:22.323Z,19.10
2018-06-23T02:44:50.854Z,19.10
2018-06-23T02:47:19.419Z,19.10
2018-06-23T02:49:47.941Z,19.10
2018-06-23T02:54:44.690Z,19.00
2018-06-23T02:57:13.257Z,19.00
2018-06-23T02:59:41.790Z,18.90
2018-06-23T03:02:10.357Z,18.90
2018-06-23T03:04:39.870Z,18.90
2018-06-23T03:07:08.441Z,18.80
2018-06-23T03:09:36.974Z,18.80
2018-06-23T03:12:05.646Z,18.80
2018-06-23T03:14:34.196Z,18.80
2018-06-23T03:17:03.108Z,18.80
2018-06-23T03:19:31.641Z,18.70
2018-06-23T03:22:00.194Z,18.70
2018-06-23T03:24:28.720Z,18.60
2018-06-23T03:29:25.445Z,18.60
2018-06-23T03:31:54.006Z,18.60
2018-06-23T03:34:22.539Z,18.50
2018-06-23T03:36:51.084Z,18.50
2018-06-23T03:39:19.606Z,18.50
2018-06-23T03:41:48.184Z,18.50
2018-06-23T03:44:16.714Z,18.40
2018-06-23T03:46:45.274Z,18.40
2018-06-23T03:49:13.833Z,18.40
2018-06-23T03:51:42.361Z,18.30
2018-06-23T03:54:11.021Z,18.30
2018-06-23T03:59:07.777Z,18.30
2018-06-23T04:01:36.317Z,18.30
2018-06-23T04:04:04.899Z,18.30
2018-06-23T04:06:33.432Z,18.20
2018-06-23T04:09:02.045Z,18.20
2018-06-23T04:11:30.582Z,18.10
2018-06-23T04:13:59.227Z,18.20
2018-06-23T04:16:27.773Z,18.10
2018-06-23T04:18:58.474Z,18.10
2018-06-23T04:21:28.871Z,18.10
2018-06-23T04:23:57.686Z,18.10
2018-06-23T04:26:26.823Z,18.10
2018-06-23T04:28:55.376Z,18.00
2018-06-23T04:31:23.922Z,18.00
2018-06-23T04:33:52.458Z,18.00
2018-06-23T04:36:21.006Z,18.00
2018-06-23T04:38:49.558Z,18.00
2018-06-23T04:41:18.099Z,18.00
2018-06-23T04:43:46.668Z,18.00
2018-06-23T04:46:15.203Z,17.90
2018-06-23T04:48:43.769Z,17.90
2018-06-23T04:51:12.296Z,17.90
2018-06-23T04:53:44.141Z,17.90
2018-06-23T04:56:12.710Z,17.80
2018-06-23T04:58:41.425Z,17.80
2018-06-23T05:01:10.289Z,17.80
2018-06-23T05:03:39.319Z,17.80
2018-06-23T05:06:07.977Z,17.80
2018-06-23T05:08:37.703Z,17.80
2018-06-23T05:11:06.468Z,17.80
2018-06-23T05:13:35.273Z,17.80
2018-06-23T05:16:04.046Z,17.80
2018-06-23T05:18:32.844Z,17.80
2018-06-23T05:21:01.344Z,17.80
2018-06-23T05:23:30.117Z,17.80
2018-06-23T05:25:59.404Z,17.80
2018-06-23T05:28:28.002Z,17.80
2018-06-23T05:30:56.508Z,17.80
2018-06-23T05:33:25.038Z,17.90
2018-06-23T05:35:53.950Z,17.90
2018-06-23T05:38:22.469Z,17.80
2018-06-23T05:40:50.972Z,17.80
2018-06-23T05:45:47.754Z,17.90
2018-06-23T05:48:16.287Z,17.80
2018-06-23T05:50:44.790Z,17.90
2018-06-23T05:53:13.332Z,17.90
2018-06-23T05:55:41.904Z,17.90
2018-06-23T05:58:10.437Z,17.90
2018-06-23T06:00:39.622Z,17.90
2018-06-23T06:03:08.688Z,17.90
2018-06-23T06:05:37.255Z,17.90
2018-06-23T06:08:05.856Z,17.90
2018-06-23T06:10:34.441Z,17.90
2018-06-23T06:13:02.997Z,18.00
2018-06-23T06:15:31.565Z,18.00
2018-06-23T06:18:00.850Z,18.00
2018-06-23T06:20:29.410Z,18.00
2018-06-23T06:22:57.932Z,18.00
2018-06-23T06:25:26.474Z,18.00
2018-06-23T06:27:55.013Z,18.00
2018-06-23T06:30:24.678Z,18.00
2018-06-23T06:32:53.202Z,18.00
2018-06-23T06:37:50.054Z,18.10
2018-06-23T06:40:18.620Z,18.10
2018-06-23T06:42:47.263Z,18.10
2018-06-23T06:45:16.358Z,18.10
2018-06-23T06:47:45.139Z,18.20
2018-06-23T06:50:13.699Z,18.10
2018-06-23T06:52:42.243Z,18.20
2018-06-23T06:55:10.832Z,18.20
2018-06-23T06:57:39.337Z,18.20
2018-06-23T07:00:07.934Z,18.20
2018-06-23T07:02:36.453Z,18.20
2018-06-23T07:05:05.577Z,18.20
2018-06-23T07:07:34.089Z,18.20
2018-06-23T07:10:02.674Z,18.20
2018-06-23T07:12:31.198Z,18.20
2018-06-23T07:14:59.742Z,18.30
2018-06-23T07:19:56.847Z,17.90
2018-06-23T07:22:25.408Z,17.20
2018-06-23T07:24:53.963Z,16.90
2018-06-23T07:29:51.349Z,17.40
2018-06-23T07:32:19.912Z,17.50
2018-06-23T07:34:48.607Z,17.60
2018-06-23T07:37:17.207Z,17.70
2018-06-23T07:39:45.794Z,17.70
2018-06-23T07:42:14.340Z,17.70
2018-06-23T07:44:42.994Z,17.70
2018-06-23T07:47:11.530Z,17.70
2018-06-23T07:49:40.074Z,17.80
2018-06-23T07:52:08.661Z,17.70
2018-06-23T07:54:37.218Z,17.70
2018-06-23T07:57:05.733Z,17.70
2018-06-23T07:59:38.622Z,17.70
2018-06-23T08:02:07.155Z,17.70
2018-06-23T08:04:35.692Z,17.70
2018-06-23T08:07:04.246Z,17.80
2018-06-23T08:09:32.761Z,17.80
2018-06-23T08:12:01.313Z,17.80
2018-06-23T08:14:29.861Z,17.80
2018-06-23T08:16:58.408Z,17.80
2018-06-23T08:19:26.934Z,18.50
2018-06-23T08:21:55.486Z,19.30
2018-06-23T08:24:24.054Z,20.10
2018-06-23T08:26:52.578Z,21.20
2018-06-23T08:31:49.384Z,22.30
2018-06-23T08:34:17.854Z,22.50
2018-06-23T08:36:46.397Z,22.70
2018-06-23T08:39:14.940Z,22.90
2018-06-23T08:41:43.470Z,22.90
2018-06-23T08:44:11.986Z,23.00
2018-06-23T08:46:40.546Z,23.00
2018-06-23T08:49:09.152Z,23.00
2018-06-23T08:51:37.808Z,23.00
2018-06-23T08:54:06.361Z,23.00
2018-06-23T08:56:34.900Z,23.00
2018-06-23T08:59:03.470Z,23.10
2018-06-23T09:01:32.033Z,23.10
2018-06-23T09:04:00.568Z,23.10
2018-06-23T09:06:29.261Z,23.00
2018-06-23T09:08:57.831Z,23.00
2018-06-23T09:11:26.403Z,23.10
2018-06-23T09:13:55.851Z,23.10
2018-06-23T09:16:24.500Z,23.10
2018-06-23T09:18:53.023Z,23.00
2018-06-23T09:21:21.594Z,23.00
2018-06-23T09:23:50.130Z,23.00
2018-06-23T09:26:18.771Z,23.00
2018-06-23T09:28:47.296Z,23.00
2018-06-23T09:31:16.437Z,23.00
2018-06-23T09:33:45.107Z,23.00
2018-06-23T09:36:13.685Z,22.90
2018-06-23T09:38:42.217Z,22.90
2018-06-23T09:41:10.798Z,22.90
2018-06-23T09:43:39.326Z,22.90
2018-06-23T09:46:08.170Z,22.90
2018-06-23T09:48:36.802Z,23.00
2018-06-23T09:51:06.037Z,23.00
2018-06-23T09:53:34.561Z,23.10
2018-06-23T09:56:03.173Z,23.10
2018-06-23T09:58:31.730Z,23.20
2018-06-23T10:01:00.297Z,23.00
2018-06-23T10:03:28.831Z,23.00
2018-06-23T10:05:57.362Z,22.90
2018-06-23T10:08:25.930Z,22.90
2018-06-23T10:10:54.495Z,22.90
2018-06-23T10:13:23.054Z,23.00
2018-06-23T10:15:51.573Z,23.10
2018-06-23T10:18:20.147Z,23.00
2018-06-23T10:20:48.768Z,23.00
2018-06-23T10:23:17.347Z,22.90
2018-06-23T10:25:45.881Z,23.00
2018-06-23T10:28:14.447Z,23.00
2018-06-23T10:30:42.989Z,23.00
2018-06-23T10:33:11.560Z,23.20
2018-06-23T10:35:40.337Z,23.40
2018-06-23T10:38:19.039Z,23.50
2018-06-23T10:41:35.569Z,22.50
2018-06-23T10:44:04.738Z,21.10
2018-06-23T10:46:33.641Z,20.50
2018-06-23T10:49:02.224Z,20.20
2018-06-23T10:51:31.735Z,20.10
2018-06-23T10:54:01.206Z,20.10
2018-06-23T10:56:29.733Z,20.20
2018-06-23T10:58:58.318Z,20.30
2018-06-23T11:01:26.858Z,20.50
2018-06-23T11:03:55.691Z,20.60
2018-06-23T11:06:24.241Z,20.60
2018-06-23T11:08:53.068Z,20.40
2018-06-23T11:11:21.628Z,20.30
2018-06-23T11:13:50.188Z,20.20
2018-06-23T11:16:18.736Z,20.10
2018-06-23T11:18:47.274Z,19.70
2018-06-23T11:21:15.819Z,20.90
2018-06-23T11:23:44.379Z,22.40
2018-06-23T11:26:13.129Z,23.50
2018-06-23T11:28:42.236Z,24.10
2018-06-23T11:31:11.146Z,24.40
2018-06-23T11:33:39.815Z,24.60
2018-06-23T11:36:08.333Z,24.90
2018-06-23T11:38:36.982Z,25.00
2018-06-23T11:41:05.514Z,25.00
2018-06-23T11:43:34.090Z,25.10
2018-06-23T11:46:02.640Z,25.20
2018-06-23T11:48:31.208Z,25.30
2018-06-23T11:50:59.735Z,25.40
2018-06-23T11:53:28.295Z,25.60
2018-06-23T11:55:56.848Z,25.80
2018-06-23T11:58:25.382Z,25.90
2018-06-23T12:00:53.890Z,26.00
2018-06-23T12:05:50.611Z,26.00
2018-06-23T12:08:19.148Z,25.90
2018-06-23T12:10:47.671Z,25.80
2018-06-23T12:13:16.215Z,25.60
2018-06-23T12:15:44.822Z,25.60
2018-06-23T12:18:13.360Z,25.50
2018-06-23T12:20:41.915Z,25.40
2018-06-23T12:23:10.441Z,25.70
2018-06-23T12:25:38.958Z,25.80
2018-06-23T12:28:07.964Z,25.90
2018-06-23T12:30:37.428Z,26.00
2018-06-23T12:35:34.239Z,25.80
2018-06-23T12:38:02.807Z,25.60
2018-06-23T12:40:31.394Z,25.50
2018-06-23T12:42:59.953Z,25.40
2018-06-23T12:45:28.464Z,25.40
2018-06-23T12:47:56.996Z,25.40
2018-06-23T12:50:25.603Z,25.40
2018-06-23T12:52:54.139Z,25.30
2018-06-23T12:55:22.645Z,23.40
2018-06-23T12:57:51.197Z,22.30
2018-06-23T13:00:19.827Z,23.10
2018-06-23T13:02:48.353Z,24.20
2018-06-23T13:05:16.906Z,24.70
2018-06-23T13:07:45.419Z,24.90
2018-06-23T13:10:13.994Z,25.00
2018-06-23T13:12:42.563Z,25.00
2018-06-23T13:15:11.269Z,25.10
2018-06-23T13:17:39.750Z,25.10
2018-06-23T13:20:08.314Z,25.10
2018-06-23T13:22:36.833Z,25.10
2018-06-23T13:25:05.579Z,25.10
2018-06-23T13:27:34.083Z,25.20
2018-06-23T13:30:02.621Z,25.10
2018-06-23T13:32:31.199Z,25.20
2018-06-23T13:37:24.636Z,25.20
2018-06-23T13:39:53.179Z,25.00
2018-06-23T13:42:22.177Z,25.00
2018-06-23T13:44:50.797Z,25.00
2018-06-23T13:47:38.861Z,25.00
2018-06-23T13:50:07.490Z,25.00
2018-06-23T13:52:35.998Z,25.00
2018-06-23T13:55:04.593Z,25.10
2018-06-23T13:57:33.275Z,25.00
2018-06-23T14:00:01.823Z,25.00
2018-06-23T14:02:30.675Z,25.00
2018-06-23T14:04:59.258Z,25.10
2018-06-23T14:07:35.933Z,25.10
2018-06-23T14:10:04.854Z,25.10
2018-06-23T14:12:33.363Z,25.10
2018-06-23T14:15:01.916Z,25.10
2018-06-23T14:17:30.448Z,25.10
2018-06-23T14:19:59.046Z,25.10
2018-06-23T14:22:28.223Z,24.90
2018-06-23T14:24:56.761Z,24.90
2018-06-23T14:27:25.498Z,24.90
2018-06-23T14:29:54.038Z,24.90
2018-06-23T14:32:23.446Z,24.90
2018-06-23T14:37:19.965Z,24.80
2018-06-23T14:39:48.531Z,24.80
2018-06-23T14:42:17.513Z,24.00
2018-06-23T14:44:46.048Z,24.10
2018-06-23T14:47:14.559Z,24.40
2018-06-23T14:49:43.114Z,24.50
2018-06-23T14:52:11.869Z,24.60
2018-06-23T14:57:08.966Z,24.70
2018-06-23T15:02:05.830Z,24.70
2018-06-23T15:04:34.366Z,24.70
2018-06-23T15:07:02.878Z,24.60
2018-06-23T15:09:42.499Z,24.60
2018-06-23T15:12:23.433Z,24.60
2018-06-23T15:14:54.827Z,24.60
2018-06-23T15:17:23.806Z,24.60
2018-06-23T15:19:52.334Z,24.60
2018-06-23T15:22:23.070Z,24.50
2018-06-23T15:24:51.657Z,24.50
2018-06-23T15:27:20.177Z,24.50
2018-06-23T15:29:48.810Z,24.50
2018-06-23T15:32:17.310Z,24.50
2018-06-23T15:37:14.274Z,24.40
2018-06-23T15:42:11.047Z,24.50
2018-06-23T15:44:39.555Z,24.40
2018-06-23T15:47:08.205Z,24.50
2018-06-23T15:49:36.711Z,24.40
2018-06-23T15:52:05.271Z,24.40
2018-06-23T15:54:33.781Z,24.40
2018-06-23T15:57:02.356Z,24.30
2018-06-23T15:59:37.176Z,24.30
2018-06-23T16:02:06.015Z,24.30
2018-06-23T16:04:34.563Z,24.30
2018-06-23T16:07:03.235Z,24.30
2018-06-23T16:09:31.859Z,24.20
2018-06-23T16:12:00.406Z,24.20
2018-06-23T16:16:57.494Z,24.20
2018-06-23T16:19:26.601Z,24.20
2018-06-23T16:21:55.145Z,24.10
2018-06-23T16:24:25.228Z,24.10
2018-06-23T16:26:53.903Z,24.10
2018-06-23T16:29:22.421Z,24.10
2018-06-23T16:31:52.510Z,24.10
2018-06-23T16:34:21.048Z,24.00
2018-06-23T16:39:17.835Z,24.00
2018-06-23T16:41:52.232Z,24.00
2018-06-23T16:44:20.722Z,24.00
2018-06-23T16:46:49.262Z,24.00
2018-06-23T16:49:17.784Z,23.90
2018-06-23T16:51:46.389Z,24.00
2018-06-23T16:54:15.014Z,23.90
2018-06-23T16:56:46.713Z,23.90
2018-06-23T16:59:33.630Z,23.80
2018-06-23T17:02:02.185Z,23.80
2018-06-23T17:04:31.559Z,23.80
2018-06-23T17:07:01.653Z,23.80
2018-06-23T17:09:30.169Z,23.80
2018-06-23T17:11:58.706Z,23.80
2018-06-23T17:14:27.226Z,23.70
2018-06-23T17:16:55.771Z,23.70
2018-06-23T17:19:24.392Z,23.70
2018-06-23T17:21:53.010Z,23.60
2018-06-23T17:24:21.599Z,23.60
2018-06-23T17:29:18.366Z,23.60
2018-06-23T17:31:47.130Z,23.60
2018-06-23T17:34:16.053Z,23.60
2018-06-23T17:36:44.686Z,23.50
2018-06-23T17:39:13.196Z,23.50
2018-06-23T17:41:42.153Z,23.50
2018-06-23T17:44:10.729Z,23.50
2018-06-23T17:46:39.262Z,23.40
2018-06-23T17:49:08.018Z,23.40
2018-06-23T17:51:36.626Z,23.40
2018-06-23T17:54:05.443Z,23.40
2018-06-23T17:56:34.002Z,23.30
2018-06-23T17:59:02.638Z,23.30
2018-06-23T18:01:31.458Z,23.30
2018-06-23T18:03:59.978Z,23.30
2018-06-23T18:06:28.672Z,23.30
2018-06-23T18:08:57.074Z,23.20
2018-06-23T18:11:26.231Z,23.20
2018-06-23T18:13:57.108Z,23.20
2018-06-23T18:16:25.803Z,23.20
2018-06-23T18:18:54.530Z,23.20
2018-06-23T18:21:23.054Z,23.10
2018-06-23T18:23:51.583Z,23.10
2018-06-23T18:26:20.087Z,23.10
2018-06-23T18:28:48.634Z,23.10
2018-06-23T18:31:17.151Z,23.00
2018-06-23T18:33:45.788Z,23.00
2018-06-23T18:36:14.454Z,23.00
2018-06-23T18:38:43.269Z,23.00
2018-06-23T18:41:11.848Z,23.00
2018-06-23T18:43:40.448Z,22.90
2018-06-23T18:46:09.044Z,22.90
2018-06-23T18:48:37.570Z,22.90
2018-06-23T18:51:06.094Z,22.90
2018-06-23T18:53:34.630Z,22.80
2018-06-23T18:56:03.227Z,22.80
2018-06-23T18:58:31.765Z,22.80
2018-06-23T19:01:00.278Z,22.80
2018-06-23T19:05:57.371Z,22.70
2018-06-23T19:08:25.959Z,22.70
2018-06-23T19:10:54.470Z,22.70
2018-06-23T19:13:22.999Z,22.70
2018-06-23T19:15:51.516Z,22.60
2018-06-23T19:18:20.059Z,22.60
2018-06-23T19:23:16.787Z,22.60
2018-06-23T19:25:46.097Z,22.50
2018-06-23T19:28:14.648Z,22.50
2018-06-23T19:30:43.177Z,22.50
2018-06-23T19:33:11.693Z,22.50
2018-06-23T19:35:40.225Z,22.50
2018-06-23T19:38:08.767Z,22.40
2018-06-23T19:40:37.359Z,22.40
2018-06-23T19:43:05.944Z,22.40
2018-06-23T19:45:34.555Z,22.40
2018-06-23T19:48:03.254Z,22.30
2018-06-23T19:50:31.926Z,22.30
2018-06-23T19:53:00.453Z,22.30
2018-06-23T19:55:28.968Z,22.30
2018-06-23T19:57:57.545Z,22.30
2018-06-23T20:00:26.327Z,22.20
2018-06-23T20:02:54.895Z,22.20
2018-06-23T20:05:23.394Z,22.20
2018-06-23T20:07:51.903Z,22.20
2018-06-23T20:10:20.481Z,22.20
2018-06-23T20:12:49.113Z,22.10
2018-06-23T20:15:17.749Z,22.10
2018-06-23T20:17:46.333Z,22.10
2018-06-23T20:20:14.874Z,22.00
2018-06-23T20:22:43.590Z,22.00
2018-06-23T20:25:12.160Z,22.00
2018-06-23T20:27:40.790Z,22.00
2018-06-23T20:30:09.322Z,22.00
2018-06-23T20:32:37.856Z,21.90
2018-06-23T20:35:06.474Z,21.90
2018-06-23T20:40:03.269Z,21.90
2018-06-23T20:42:31.882Z,21.90
2018-06-23T20:45:00.450Z,21.80
2018-06-23T20:47:29.088Z,21.80
2018-06-23T20:49:57.682Z,21.80
2018-06-23T20:52:26.195Z,21.80
2018-06-23T20:54:54.733Z,21.80
2018-06-23T20:57:23.261Z,21.70
2018-06-23T20:59:51.830Z,21.70
2018-06-23T21:02:20.366Z,21.70
2018-06-23T21:04:48.917Z,21.60
2018-06-23T21:07:17.534Z,21.60
2018-06-23T21:09:46.039Z,21.60
2018-06-23T21:14:42.774Z,21.60
2018-06-23T21:17:11.312Z,21.60
2018-06-23T21:19:40.028Z,21.60
2018-06-23T21:22:08.559Z,21.50
2018-06-23T21:24:37.099Z,21.50
2018-06-23T21:27:05.617Z,21.50
2018-06-23T21:29:34.248Z,21.50
2018-06-23T21:32:02.815Z,21.40
2018-06-23T21:34:31.370Z,21.40
2018-06-23T21:37:00.001Z,21.40
2018-06-23T21:39:28.554Z,21.40
2018-06-23T21:41:57.066Z,21.40
2018-06-23T21:44:25.623Z,21.40
2018-06-23T21:46:54.188Z,21.30
2018-06-23T21:49:22.772Z,21.30
2018-06-23T21:51:51.402Z,21.30
2018-06-23T21:56:45.410Z,21.30
2018-06-23T21:59:13.947Z,21.20
2018-06-23T22:01:42.495Z,21.20
2018-06-23T22:04:10.994Z,21.20
2018-06-23T22:06:39.563Z,21.10
2018-06-23T22:09:09.411Z,21.10
2018-06-23T22:11:37.962Z,21.10
2018-06-23T22:14:06.613Z,21.10
2018-06-23T22:16:35.361Z,21.10
2018-06-23T22:19:03.875Z,21.10
2018-06-23T22:21:32.402Z,21.10
2018-06-23T22:24:00.902Z,21.00
2018-06-23T22:26:29.422Z,21.00
2018-06-23T22:28:57.955Z,21.00
2018-06-23T22:31:26.496Z,20.90
2018-06-23T22:33:55.065Z,20.90
2018-06-23T22:36:23.629Z,20.90
2018-06-23T22:38:52.138Z,20.90
2018-06-23T22:41:20.701Z,20.90
2018-06-23T22:43:49.217Z,20.80
2018-06-23T22:46:17.774Z,20.80
2018-06-23T22:48:46.375Z,20.80
2018-06-23T22:51:14.908Z,20.80
2018-06-23T22:53:43.411Z,20.80
2018-06-23T22:56:12.034Z,20.80
2018-06-23T22:58:40.549Z,20.70
2018-06-23T23:01:09.203Z,20.70
2018-06-23T23:03:37.781Z,20.70
2018-06-23T23:06:06.353Z,20.70
2018-06-23T23:08:34.905Z,20.60
2018-06-23T23:11:03.467Z,20.60
2018-06-23T23:13:32.029Z,20.60
2018-06-23T23:16:00.605Z,20.60
2018-06-23T23:18:29.142Z,20.60
2018-06-23T23:20:57.721Z,20.60
2018-06-23T23:23:26.242Z,20.50
2018-06-23T23:25:54.791Z,20.50
2018-06-23T23:28:23.329Z,20.50
2018-06-23T23:30:52.023Z,20.50
2018-06-23T23:33:20.621Z,20.50
2018-06-23T23:35:49.163Z,20.40
2018-06-23T23:38:17.740Z,20.40
2018-06-23T23:40:46.332Z,20.40
2018-06-23T23:43:14.867Z,20.40
2018-06-23T23:45:43.438Z,20.40
2018-06-23T23:48:11.974Z,20.30
2018-06-23T23:50:40.545Z,20.30
2018-06-23T23:53:09.112Z,20.30
2018-06-23T23:55:37.763Z,20.30
2018-06-23T23:58:06.310Z,20.30
